Time;durP1;ratioP1;P1;durP2;ratioP2;P2;SDS_P1;SDS_P2;PMS_P1;PMS_P2;Temp;Humidity;BMP_temperature;BMP_pressure;BME280_temperature;BME280_humidity;BME280_pressure;Samples;Min_cycle;Max_cycle;Signal;HPM_P1;HPM_P2
2022/08/29 00:02:08;;;;;;;11.07;3.60;;;16.60;99.90;;;;;;4974426;28;20084;-77
2022/08/29 00:04:34;;;;;;;15.02;3.63;;;16.60;99.90;;;;;;4975256;28;20141;-76
2022/08/29 00:07:00;;;;;;;9.00;3.33;;;16.70;99.90;;;;;;4960925;28;20388;-79
2022/08/29 00:09:25;;;;;;;12.27;3.92;;;16.70;99.90;;;;;;4960386;28;20037;-77
2022/08/29 00:11:51;;;;;;;8.25;3.30;;;16.70;99.90;;;;;;4977365;28;20060;-81
2022/08/29 00:14:18;;;;;;;9.52;3.30;;;16.60;99.90;;;;;;4958952;28;20047;-77
2022/08/29 00:16:46;;;;;;;7.75;3.40;;;16.70;99.90;;;;;;4981427;28;20045;-78
2022/08/29 00:19:12;;;;;;;13.45;3.72;;;16.60;99.90;;;;;;4959017;28;20046;-80
2022/08/29 00:21:38;;;;;;;14.52;3.85;;;16.70;99.90;;;;;;4972642;28;20041;-79
2022/08/29 00:24:04;;;;;;;11.70;3.67;;;16.70;99.90;;;;;;4958048;28;20040;-76
2022/08/29 00:26:29;;;;;;;11.07;3.50;;;16.70;99.90;;;;;;4974553;28;20073;-76
2022/08/29 00:28:55;;;;;;;9.90;3.67;;;16.60;99.90;;;;;;4973855;28;20035;-77
2022/08/29 00:31:21;;;;;;;9.73;3.67;;;16.60;99.90;;;;;;4982550;28;20039;-78
2022/08/29 00:33:46;;;;;;;9.63;3.58;;;16.60;99.90;;;;;;4983300;28;20055;-77
2022/08/29 00:36:12;;;;;;;10.32;3.40;;;16.60;99.90;;;;;;4969556;28;20050;-77
2022/08/29 00:38:38;;;;;;;17.15;3.70;;;16.60;99.90;;;;;;5006612;28;20406;-75
2022/08/29 00:41:05;;;;;;;10.35;3.55;;;16.60;99.90;;;;;;4976344;28;20121;-79
2022/08/29 00:43:35;;;;;;;10.70;3.17;;;16.60;99.90;;;;;;4971531;28;20594;-79
2022/08/29 00:46:22;;;;;;;13.90;3.83;;;16.60;99.90;;;;;;4956699;28;20129;-77
2022/08/29 00:48:55;;;;;;;11.13;3.78;;;16.70;99.90;;;;;;4956547;28;20046;-79
2022/08/29 00:51:22;;;;;;;7.97;3.25;;;16.70;99.90;;;;;;4963228;28;20042;-80
2022/08/29 00:53:52;;;;;;;10.77;3.33;;;16.70;99.90;;;;;;4975994;28;20054;-80
2022/08/29 00:56:19;;;;;;;9.73;2.78;;;16.70;99.90;;;;;;4961404;28;20429;-77
2022/08/29 00:58:56;;;;;;;11.52;3.00;;;16.60;99.90;;;;;;4958853;28;20061;-80
2022/08/29 01:01:22;;;;;;;10.35;3.00;;;16.70;99.90;;;;;;4963526;28;20041;-80
2022/08/29 01:03:49;;;;;;;10.23;3.10;;;16.70;99.90;;;;;;5044690;28;20046;-77
2022/08/29 01:06:16;;;;;;;10.93;2.78;;;16.60;99.90;;;;;;5064871;28;20061;-76
2022/08/29 01:08:43;;;;;;;10.75;2.85;;;16.60;99.90;;;;;;5092955;27;20164;-77
2022/08/29 01:13:58;;;;;;;9.15;2.55;;;16.60;99.90;;;;;;5092688;27;20171;-79
2022/08/29 01:16:25;;;;;;;13.52;2.47;;;16.60;99.90;;;;;;5068934;28;20042;-76
2022/08/29 01:18:55;;;;;;;9.07;2.90;;;16.60;99.90;;;;;;5033741;28;20060;-80
2022/08/29 01:21:37;;;;;;;9.30;3.25;;;16.60;99.90;;;;;;5062701;28;20041;-77
2022/08/29 01:24:15;;;;;;;6.13;2.42;;;16.60;99.90;;;;;;5092489;27;20147;-79
2022/08/29 01:26:45;;;;;;;10.02;3.08;;;16.60;99.90;;;;;;5061297;28;20498;-76
2022/08/29 01:29:12;;;;;;;9.05;3.65;;;16.60;99.90;;;;;;5043661;28;20067;-77
2022/08/29 01:31:44;;;;;;;10.20;2.53;;;16.60;99.90;;;;;;5061075;28;20047;-76
2022/08/29 01:34:11;;;;;;;9.00;2.55;;;16.70;99.90;;;;;;5059000;28;20073;-77
2022/08/29 01:36:54;;;;;;;10.25;2.65;;;16.70;99.90;;;;;;5076446;28;20045;-79
2022/08/29 01:39:23;;;;;;;10.18;2.55;;;16.70;99.90;;;;;;5072972;28;20274;-78
2022/08/29 01:41:50;;;;;;;7.32;2.53;;;16.70;99.90;;;;;;5047413;28;20033;-78
2022/08/29 01:44:20;;;;;;;10.45;2.70;;;16.70;99.90;;;;;;5073795;28;20038;-77
2022/08/29 01:46:48;;;;;;;7.82;2.45;;;16.60;99.90;;;;;;5061878;28;20066;-78
2022/08/29 01:49:16;;;;;;;12.20;2.78;;;16.60;99.90;;;;;;4997960;28;20042;-78
2022/08/29 01:51:42;;;;;;;6.85;2.33;;;16.60;99.90;;;;;;5066460;28;20034;-80
2022/08/29 01:54:09;;;;;;;8.70;2.40;;;16.70;99.90;;;;;;5054228;28;20072;-78
2022/08/29 01:56:38;;;;;;;9.98;2.13;;;16.60;99.90;;;;;;5046155;28;20450;-79
2022/08/29 01:59:28;;;;;;;11.88;2.42;;;16.60;99.90;;;;;;5091989;27;20038;-77
2022/08/29 02:02:06;;;;;;;11.15;2.67;;;16.70;99.90;;;;;;5064353;28;20130;-76
2022/08/29 02:04:32;;;;;;;9.38;2.60;;;16.70;99.90;;;;;;5075901;28;20034;-78
2022/08/29 02:06:58;;;;;;;6.95;2.05;;;16.70;99.90;;;;;;5074877;28;20035;-77
2022/08/29 02:09:25;;;;;;;6.72;2.17;;;16.70;99.90;;;;;;5051563;28;20632;-80
2022/08/29 02:11:53;;;;;;;14.23;2.40;;;16.70;99.90;;;;;;5062723;28;20563;-77
2022/08/29 02:14:37;;;;;;;11.35;2.72;;;16.70;99.90;;;;;;5047369;28;20108;-81
2022/08/29 02:17:05;;;;;;;9.38;2.80;;;16.70;99.90;;;;;;5043072;28;20042;-76
2022/08/29 02:19:32;;;;;;;9.77;2.95;;;16.70;99.90;;;;;;5002095;28;20026;-76
2022/08/29 02:21:58;;;;;;;9.32;2.63;;;16.70;99.90;;;;;;5069888;28;20037;-77
2022/08/29 02:24:25;;;;;;;8.50;2.47;;;16.70;99.90;;;;;;5054326;28;20059;-77
2022/08/29 02:26:53;;;;;;;12.35;2.70;;;16.70;99.90;;;;;;5063391;28;20129;-77
2022/08/29 02:29:19;;;;;;;10.02;2.40;;;16.70;99.90;;;;;;5072999;28;20070;-77
2022/08/29 02:31:44;;;;;;;15.32;2.58;;;16.60;99.90;;;;;;5059941;28;20117;-76
2022/08/29 02:34:10;;;;;;;13.57;2.50;;;16.60;99.90;;;;;;5063271;28;20107;-80
2022/08/29 02:36:36;;;;;;;15.73;2.80;;;16.60;99.90;;;;;;5077495;28;20347;-80
2022/08/29 02:39:03;;;;;;;12.93;2.78;;;16.60;99.90;;;;;;5087237;27;20045;-81
2022/08/29 02:41:30;;;;;;;11.48;2.55;;;16.50;99.90;;;;;;5045370;28;20042;-78
2022/08/29 02:43:57;;;;;;;15.38;2.70;;;16.50;99.90;;;;;;5061233;28;20066;-76
2022/08/29 02:46:23;;;;;;;10.95;2.88;;;16.40;99.90;;;;;;5046097;28;20037;-79
2022/08/29 02:48:48;;;;;;;10.10;2.65;;;16.50;99.90;;;;;;5043807;28;20346;-78
2022/08/29 02:51:23;;;;;;;15.48;2.90;;;16.50;99.90;;;;;;5040594;28;20056;-76
2022/08/29 02:53:50;;;;;;;10.98;2.95;;;16.40;99.90;;;;;;5058464;28;20052;-78
2022/08/29 02:56:16;;;;;;;9.10;2.67;;;16.50;99.90;;;;;;5062490;28;20045;-78
2022/08/29 02:58:42;;;;;;;12.57;2.55;;;16.50;99.90;;;;;;5059231;28;20141;-76
2022/08/29 03:01:08;;;;;;;13.45;3.08;;;16.40;99.90;;;;;;5031849;28;20125;-79
2022/08/29 03:03:34;;;;;;;9.90;2.42;;;16.50;99.90;;;;;;5070380;28;20100;-80
2022/08/29 03:06:00;;;;;;;12.20;2.88;;;16.50;99.90;;;;;;5054800;28;20059;-78
2022/08/29 03:08:26;;;;;;;12.95;2.80;;;16.50;99.90;;;;;;5058057;28;20042;-78
2022/08/29 03:10:52;;;;;;;12.43;2.92;;;16.50;99.90;;;;;;5060779;28;20034;-77
2022/08/29 03:13:18;;;;;;;14.25;3.20;;;16.50;99.90;;;;;;5081679;28;20124;-78
2022/08/29 03:15:43;;;;;;;8.65;2.63;;;16.50;99.90;;;;;;5056308;28;20410;-75
2022/08/29 03:18:09;;;;;;;13.05;2.67;;;16.40;99.90;;;;;;5089171;27;20045;-76
2022/08/29 03:20:37;;;;;;;12.25;2.70;;;16.50;99.90;;;;;;5072914;28;20034;-77
2022/08/29 03:23:04;;;;;;;9.90;2.50;;;16.50;99.90;;;;;;5072302;28;20400;-80
2022/08/29 03:25:30;;;;;;;13.52;2.72;;;16.50;99.90;;;;;;5041746;28;20350;-78
2022/08/29 03:27:58;;;;;;;17.05;2.90;;;16.40;99.90;;;;;;5072884;28;20095;-77
2022/08/29 03:30:24;;;;;;;10.20;2.75;;;16.50;99.90;;;;;;5074210;28;20049;-76
2022/08/29 03:32:50;;;;;;;12.15;2.42;;;16.40;99.90;;;;;;5049664;28;20064;-79
2022/08/29 03:35:18;;;;;;;17.58;2.92;;;16.50;99.90;;;;;;5074220;28;20401;-80
2022/08/29 03:37:44;;;;;;;11.80;2.67;;;16.40;99.90;;;;;;5059905;28;20030;-78
2022/08/29 03:40:11;;;;;;;10.20;2.40;;;16.40;99.90;;;;;;5043205;28;20050;-77
2022/08/29 03:42:37;;;;;;;11.68;2.65;;;16.40;99.90;;;;;;5056949;28;20504;-77
2022/08/29 03:45:06;;;;;;;12.38;2.40;;;16.40;99.90;;;;;;5042813;28;20045;-80
2022/08/29 03:47:33;;;;;;;9.10;2.45;;;16.40;99.90;;;;;;5057992;28;20049;-79
2022/08/29 03:49:59;;;;;;;8.52;2.55;;;16.40;99.90;;;;;;5044416;28;20369;-77
2022/08/29 03:52:25;;;;;;;14.93;2.63;;;16.40;99.90;;;;;;5088705;27;20117;-79
2022/08/29 03:54:51;;;;;;;9.13;2.63;;;16.40;99.90;;;;;;5075982;28;20050;-80
2022/08/29 03:57:17;;;;;;;10.90;2.47;;;16.40;99.90;;;;;;5046673;28;20038;-76
2022/08/29 03:59:42;;;;;;;12.40;2.50;;;16.40;99.90;;;;;;5054913;28;20048;-79
2022/08/29 04:02:08;;;;;;;11.90;2.60;;;16.30;99.90;;;;;;5069817;28;20051;-76
2022/08/29 04:07:18;;;;;;;12.07;2.67;;;16.40;99.90;;;;;;4985369;28;20049;-80
2022/08/29 04:09:44;;;;;;;13.70;2.70;;;16.40;99.90;;;;;;4977132;28;20043;-78
2022/08/29 04:12:12;;;;;;;10.63;2.30;;;16.30;99.90;;;;;;4976006;28;20335;-76
2022/08/29 04:14:39;;;;;;;9.98;2.50;;;16.30;99.90;;;;;;4978638;28;20050;-77
2022/08/29 04:17:05;;;;;;;11.50;2.60;;;16.50;99.90;;;;;;4973989;28;20069;-77
2022/08/29 04:19:32;;;;;;;9.63;2.35;;;16.30;99.90;;;;;;4973075;28;20488;-79
2022/08/29 04:21:57;;;;;;;12.27;2.72;;;16.20;99.90;;;;;;4959459;28;20164;-78
2022/08/29 04:24:24;;;;;;;13.82;2.75;;;16.30;99.90;;;;;;4976206;28;20047;-79
2022/08/29 04:26:49;;;;;;;9.50;2.70;;;16.20;99.90;;;;;;4978276;28;20189;-78
2022/08/29 04:29:15;;;;;;;14.20;2.53;;;16.20;99.90;;;;;;4975980;28;21770;-77
2022/08/29 04:31:42;;;;;;;11.90;2.72;;;16.20;99.90;;;;;;4977759;28;20042;-75
2022/08/29 04:34:12;;;;;;;9.57;2.42;;;16.20;99.90;;;;;;4985524;28;20117;-77
2022/08/29 04:36:40;;;;;;;12.88;2.63;;;16.20;99.90;;;;;;4972505;28;20865;-75
2022/08/29 04:39:07;;;;;;;19.48;3.53;;;16.20;99.90;;;;;;4984783;28;20027;-78
2022/08/29 04:41:34;;;;;;;10.00;2.80;;;16.20;99.90;;;;;;4966473;28;20128;-80
2022/08/29 04:44:00;;;;;;;7.40;2.63;;;16.30;99.90;;;;;;4961685;28;20053;-79
2022/08/29 04:46:26;;;;;;;15.38;2.60;;;16.30;99.90;;;;;;4956469;28;20073;-77
2022/08/29 04:48:52;;;;;;;17.75;3.13;;;16.30;99.90;;;;;;4962022;28;20034;-77
2022/08/29 04:51:19;;;;;;;11.02;2.72;;;16.30;99.90;;;;;;4976528;28;20497;-77
2022/08/29 04:53:45;;;;;;;10.88;2.67;;;16.30;99.90;;;;;;4960920;28;20042;-78
2022/08/29 04:56:11;;;;;;;10.68;2.60;;;16.30;99.90;;;;;;4956852;28;20171;-77
2022/08/29 04:58:39;;;;;;;10.45;2.65;;;16.30;99.90;;;;;;4968878;28;20057;-78
2022/08/29 05:01:06;;;;;;;11.68;2.58;;;16.40;99.90;;;;;;4979188;28;20035;-79
2022/08/29 05:03:33;;;;;;;11.15;2.75;;;16.40;99.90;;;;;;4979493;28;20512;-79
2022/08/29 05:06:02;;;;;;;10.02;2.47;;;16.50;99.90;;;;;;4969040;28;22914;-77
2022/08/29 05:08:28;;;;;;;8.10;2.28;;;16.40;99.90;;;;;;4963656;28;20041;-77
2022/08/29 05:10:54;;;;;;;7.75;2.30;;;16.40;99.90;;;;;;4959707;28;20054;-84
2022/08/29 05:13:21;;;;;;;8.88;2.65;;;16.50;99.90;;;;;;4973962;28;20070;-83
2022/08/29 05:15:48;;;;;;;10.52;2.28;;;16.50;99.90;;;;;;4973895;28;20061;-81
2022/08/29 05:18:14;;;;;;;11.77;2.40;;;16.50;99.90;;;;;;4978913;28;20057;-80
2022/08/29 05:20:42;;;;;;;7.97;2.30;;;16.60;99.90;;;;;;4977376;28;20047;-80
2022/08/29 05:23:08;;;;;;;10.10;2.70;;;16.60;99.90;;;;;;4960077;28;20078;-83
2022/08/29 05:25:35;;;;;;;9.35;2.50;;;16.60;99.90;;;;;;4983669;28;20042;-80
2022/08/29 05:28:01;;;;;;;11.43;2.40;;;16.60;99.90;;;;;;4974018;28;20074;-81
2022/08/29 05:30:27;;;;;;;7.55;2.20;;;16.60;99.90;;;;;;4977964;28;20047;-79
2022/08/29 05:32:56;;;;;;;6.95;2.40;;;16.60;99.90;;;;;;4959939;28;20068;-80
2022/08/29 05:35:21;;;;;;;7.95;2.40;;;16.60;99.90;;;;;;4975237;28;20042;-81
2022/08/29 05:37:50;;;;;;;9.52;2.63;;;16.70;99.90;;;;;;4962572;28;20062;-80
2022/08/29 05:40:16;;;;;;;12.18;2.33;;;16.70;99.90;;;;;;4978651;28;20070;-80
2022/08/29 05:42:41;;;;;;;6.30;2.28;;;16.70;99.90;;;;;;4979194;28;20185;-80
2022/08/29 05:45:08;;;;;;;13.20;2.53;;;16.70;99.90;;;;;;4962887;28;20422;-78
2022/08/29 05:47:34;;;;;;;8.00;2.50;;;16.70;99.90;;;;;;4980745;28;20118;-82
2022/08/29 05:50:02;;;;;;;8.40;2.08;;;16.80;99.90;;;;;;4973802;28;20421;-79
2022/08/29 05:52:29;;;;;;;14.00;2.28;;;16.70;99.90;;;;;;5000270;28;20156;-81
2022/08/29 05:54:55;;;;;;;8.20;2.28;;;16.80;99.90;;;;;;4970576;28;20123;-76
2022/08/29 05:57:24;;;;;;;12.65;2.45;;;16.80;99.90;;;;;;4993124;28;20102;-78
2022/08/29 06:00:09;;;;;;;6.90;2.20;;;16.80;99.90;;;;;;4973178;28;20085;-78
2022/08/29 06:02:35;;;;;;;9.70;2.30;;;16.90;99.90;;;;;;4985582;28;20084;-78
2022/08/29 06:05:00;;;;;;;9.07;2.38;;;16.90;99.90;;;;;;4981947;28;20386;-78
2022/08/29 06:07:26;;;;;;;12.43;2.95;;;17.00;99.90;;;;;;4959556;28;20134;-81
2022/08/29 06:09:52;;;;;;;11.98;2.97;;;17.00;99.90;;;;;;4987445;28;20076;-80
2022/08/29 06:12:18;;;;;;;9.50;2.28;;;17.00;99.90;;;;;;4958700;28;20139;-79
2022/08/29 06:14:45;;;;;;;11.73;2.50;;;17.10;99.90;;;;;;4962109;28;21074;-80
2022/08/29 06:17:11;;;;;;;12.93;2.78;;;17.30;99.90;;;;;;4957894;28;21708;-79
2022/08/29 06:19:38;;;;;;;9.40;2.50;;;17.20;99.90;;;;;;4978103;28;20062;-78
2022/08/29 06:22:07;;;;;;;8.98;2.58;;;17.30;99.90;;;;;;5043441;28;20448;-76
2022/08/29 06:24:33;;;;;;;7.15;2.53;;;17.40;99.90;;;;;;4963211;28;20482;-79
2022/08/29 06:27:00;;;;;;;11.40;2.70;;;17.50;99.90;;;;;;4958547;28;20145;-80
2022/08/29 06:29:27;;;;;;;17.73;3.28;;;17.60;99.90;;;;;;4946053;28;20101;-79
2022/08/29 06:31:55;;;;;;;10.52;2.65;;;17.60;99.90;;;;;;4973809;28;20226;-77
2022/08/29 06:34:21;;;;;;;12.02;3.13;;;17.70;99.90;;;;;;4960135;28;20051;-78
2022/08/29 06:36:46;;;;;;;8.10;2.70;;;17.70;99.90;;;;;;4959184;28;20094;-80
2022/08/29 06:39:12;;;;;;;16.58;3.10;;;17.80;99.90;;;;;;4984350;28;20558;-80
2022/08/29 06:41:39;;;;;;;14.20;2.70;;;17.90;99.90;;;;;;4965861;28;20102;-78
2022/08/29 06:44:09;;;;;;;12.80;2.90;;;17.90;99.90;;;;;;4971252;28;20177;-78
2022/08/29 06:46:38;;;;;;;16.27;2.92;;;18.10;99.90;;;;;;4959997;28;20096;-80
2022/08/29 06:49:06;;;;;;;14.05;3.10;;;18.20;99.90;;;;;;4964744;28;20089;-78
2022/08/29 06:51:36;;;;;;;13.07;3.00;;;18.20;99.90;;;;;;4953826;28;20106;-80
2022/08/29 06:54:05;;;;;;;13.50;3.67;;;18.30;99.90;;;;;;4982105;28;20203;-78
2022/08/29 06:56:34;;;;;;;11.35;3.00;;;18.40;99.90;;;;;;4981329;28;20181;-79
2022/08/29 06:59:01;;;;;;;14.38;3.75;;;18.40;99.90;;;;;;4957615;28;20370;-78
2022/08/29 07:01:27;;;;;;;16.02;3.78;;;18.50;99.90;;;;;;4997879;28;20046;-80
2022/08/29 07:03:54;;;;;;;21.95;3.22;;;18.50;99.90;;;;;;5093538;27;20046;-77
2022/08/29 07:06:20;;;;;;;24.83;3.65;;;18.60;99.90;;;;;;5045378;28;20096;-76
2022/08/29 07:08:47;;;;;;;12.98;3.47;;;18.60;99.90;;;;;;5044716;28;20042;-79
2022/08/29 07:11:12;;;;;;;22.02;4.07;;;18.60;99.90;;;;;;5045793;28;20052;-77
2022/08/29 07:13:39;;;;;;;24.17;5.45;;;18.70;99.90;;;;;;5049850;28;20132;-81
2022/08/29 07:16:10;;;;;;;23.33;3.58;;;18.70;99.90;;;;;;5079345;28;20057;-78
2022/08/29 07:18:36;;;;;;;17.38;3.50;;;18.70;99.90;;;;;;5054548;28;20053;-76
2022/08/29 07:21:06;;;;;;;12.43;3.53;;;18.70;99.90;;;;;;5077795;28;20096;-76
2022/08/29 07:23:33;;;;;;;16.73;3.60;;;18.70;99.90;;;;;;5084920;28;20050;-78
2022/08/29 07:26:13;;;;;;;16.40;3.38;;;18.70;99.90;;;;;;5069530;28;20050;-79
2022/08/29 07:28:39;;;;;;;11.60;3.03;;;18.70;99.90;;;;;;5045839;28;20053;-80
2022/08/29 07:31:06;;;;;;;13.23;2.97;;;18.70;99.90;;;;;;5063119;28;20038;-79
2022/08/29 07:33:33;;;;;;;13.73;3.67;;;18.70;99.90;;;;;;5084600;28;20038;-81
2022/08/29 07:35:59;;;;;;;18.08;3.58;;;18.70;99.90;;;;;;5081765;28;20489;-78
2022/08/29 07:38:27;;;;;;;13.82;3.03;;;18.80;99.90;;;;;;5081995;28;20038;-76
2022/08/29 07:41:00;;;;;;;12.73;3.00;;;18.80;99.90;;;;;;5052276;28;20046;-76
2022/08/29 07:43:29;;;;;;;15.15;3.03;;;18.90;99.90;;;;;;5077716;28;20477;-77
2022/08/29 07:45:56;;;;;;;12.82;2.80;;;19.00;99.90;;;;;;5083116;28;20046;-79
2022/08/29 07:48:23;;;;;;;11.02;3.33;;;19.00;99.90;;;;;;5054170;28;20040;-76
2022/08/29 07:50:49;;;;;;;9.85;2.75;;;19.10;99.90;;;;;;5054331;28;20377;-77
2022/08/29 07:53:16;;;;;;;12.48;2.88;;;19.10;99.90;;;;;;5092040;27;20054;-77
2022/08/29 07:55:42;;;;;;;14.75;3.30;;;19.10;99.90;;;;;;5057602;28;20050;-77
2022/08/29 07:58:09;;;;;;;16.10;3.30;;;19.20;99.90;;;;;;5067538;28;20057;-78
2022/08/29 08:00:35;;;;;;;16.00;3.20;;;19.40;99.90;;;;;;5054037;28;20497;-76
2022/08/29 08:03:02;;;;;;;12.15;3.20;;;19.50;99.90;;;;;;5056465;28;20566;-76
2022/08/29 08:05:28;;;;;;;13.15;3.00;;;19.60;99.90;;;;;;5060390;28;20042;-78
2022/08/29 08:07:54;;;;;;;17.15;3.42;;;19.60;99.90;;;;;;5098212;28;20453;-77
2022/08/29 08:10:19;;;;;;;8.60;2.75;;;19.60;99.90;;;;;;5109679;28;20084;-79
2022/08/29 08:12:46;;;;;;;15.82;3.20;;;19.60;99.90;;;;;;5093080;28;20070;-76
2022/08/29 08:15:14;;;;;;;15.70;3.28;;;19.70;99.90;;;;;;5055578;28;20091;-77
2022/08/29 08:17:40;;;;;;;16.45;3.45;;;19.60;99.90;;;;;;5056615;28;20540;-77
2022/08/29 08:20:07;;;;;;;16.52;3.42;;;19.50;99.90;;;;;;5040810;28;20057;-77
2022/08/29 08:22:33;;;;;;;12.07;3.25;;;19.60;99.90;;;;;;5019699;28;20055;-76
2022/08/29 08:24:59;;;;;;;22.08;4.05;;;19.50;99.90;;;;;;5049603;28;20042;-79
2022/08/29 08:27:25;;;;;;;16.92;3.60;;;19.60;99.90;;;;;;5056614;28;20087;-78
2022/08/29 08:29:51;;;;;;;16.45;3.67;;;19.60;99.90;;;;;;5039544;28;20133;-80
2022/08/29 08:32:18;;;;;;;14.60;4.18;;;19.60;99.90;;;;;;5041398;28;20060;-77
2022/08/29 08:34:44;;;;;;;18.67;3.78;;;19.60;99.90;;;;;;5076736;28;20129;-75
2022/08/29 08:37:11;;;;;;;14.27;3.13;;;19.60;99.90;;;;;;5057252;28;20100;-77
2022/08/29 08:39:37;;;;;;;15.07;3.60;;;19.60;99.90;;;;;;5109038;28;20478;-76
2022/08/29 08:42:30;;;;;;;20.08;4.65;;;19.60;99.90;;;;;;5053538;28;20137;-77
2022/08/29 08:45:18;;;;;;;18.95;4.10;;;19.80;99.90;;;;;;5058616;28;20057;-79
2022/08/29 08:47:50;;;;;;;18.75;4.15;;;19.80;99.90;;;;;;5056020;28;20100;-77
2022/08/29 08:50:29;;;;;;;16.85;4.20;;;19.80;99.90;;;;;;5044503;28;20034;-80
2022/08/29 08:53:01;;;;;;;15.07;3.60;;;19.80;99.90;;;;;;5058118;28;20374;-81
2022/08/29 08:55:44;;;;;;;14.38;4.10;;;19.80;99.90;;;;;;5021481;28;20095;-80
2022/08/29 08:58:22;;;;;;;18.23;4.20;;;19.90;99.90;;;;;;5057790;28;20061;-78
2022/08/29 09:01:13;;;;;;;12.95;3.97;;;19.90;99.90;;;;;;5057163;28;20050;-79
2022/08/29 09:04:28;;;;;;;19.15;4.22;;;19.90;99.90;;;;;;4979682;28;20654;-79
2022/08/29 09:06:59;;;;;;;17.10;4.32;;;19.90;99.90;;;;;;4956569;28;20048;-79
2022/08/29 09:09:44;;;;;;;15.73;3.95;;;20.10;99.90;;;;;;4957465;28;20052;-76
2022/08/29 09:12:32;;;;;;;14.10;3.92;;;20.30;99.90;;;;;;4973223;28;20063;-76
2022/08/29 09:15:11;;;;;;;14.85;3.75;;;20.40;99.90;;;;;;4926881;29;20071;-77
2022/08/29 09:17:51;;;;;;;17.23;4.28;;;20.50;99.90;;;;;;4893855;28;20056;-80
2022/08/29 09:20:27;;;;;;;14.07;3.70;;;20.60;99.90;;;;;;4923565;28;20047;-79
2022/08/29 09:23:13;;;;;;;20.55;4.95;;;20.70;99.90;;;;;;4917372;28;20079;-77
2022/08/29 09:25:39;;;;;;;14.23;4.10;;;20.90;99.90;;;;;;4858410;29;20231;-80
2022/08/29 09:28:07;;;;;;;13.32;3.60;;;21.00;99.90;;;;;;4844345;29;20531;-78
2022/08/29 09:30:35;;;;;;;15.52;3.97;;;21.20;99.90;;;;;;4844471;29;20085;-79
2022/08/29 09:33:08;;;;;;;12.73;3.50;;;21.30;99.90;;;;;;4934352;29;20061;-78
2022/08/29 09:35:41;;;;;;;12.02;3.45;;;21.50;99.90;;;;;;4857073;29;20429;-76
2022/08/29 09:38:16;;;;;;;10.90;3.10;;;21.50;99.90;;;;;;4853265;29;20052;-76
2022/08/29 09:40:44;;;;;;;;;;;21.40;99.90;;;;;;4895750;28;20450;-81
2022/08/29 09:43:38;;;;;;;9.57;3.00;;;21.30;99.90;;;;;;4922414;28;19931;-83
2022/08/29 09:46:09;;;;;;;9.52;2.78;;;21.10;99.90;;;;;;4906846;29;20368;-77
2022/08/29 09:48:38;;;;;;;11.27;3.50;;;20.90;99.90;;;;;;4925871;28;20048;-77
2022/08/29 09:51:15;;;;;;;11.15;3.50;;;21.00;99.90;;;;;;4923987;28;20140;-81
2022/08/29 09:53:41;;;;;;;17.45;3.78;;;21.00;99.90;;;;;;4918377;29;20063;-79
2022/08/29 09:56:16;;;;;;;20.45;3.33;;;21.00;99.90;;;;;;4934843;28;20073;-78
2022/08/29 09:58:42;;;;;;;15.90;3.50;;;21.00;99.90;;;;;;4925963;28;20075;-79
2022/08/29 10:01:26;;;;;;;12.85;3.33;;;20.90;99.90;;;;;;4911584;28;20078;-78
2022/08/29 10:03:54;;;;;;;;;;;20.90;99.90;;;;;;4943527;28;20511;-80
2022/08/29 10:06:23;;;;;;;16.25;3.60;;;20.80;99.90;;;;;;4950647;28;19926;-78
2022/08/29 10:09:00;;;;;;;14.45;3.33;;;20.90;99.90;;;;;;5029620;28;20046;-77
2022/08/29 10:11:48;;;;;;;13.10;3.10;;;21.00;99.90;;;;;;4958336;28;20046;-77
2022/08/29 10:14:58;;;;;;;11.35;2.88;;;21.00;99.90;;;;;;4958400;28;20063;-80
2022/08/29 10:20:16;;;;;;;12.40;3.33;;;21.10;99.90;;;;;;4959691;28;20054;-81
2022/08/29 10:23:05;;;;;;;14.88;3.20;;;21.20;99.90;;;;;;4950607;28;20154;-78
2022/08/29 10:25:40;;;;;;;11.32;3.13;;;21.10;99.90;;;;;;4960624;28;20498;-81
2022/08/29 10:28:05;;;;;;;;;;;21.00;99.90;;;;;;4949135;28;20079;-80
2022/08/29 10:30:49;;;;;;;13.18;3.97;;;21.00;99.90;;;;;;4959236;28;20432;-80
2022/08/29 10:33:24;;;;;;;13.40;3.30;;;21.00;99.90;;;;;;4963935;28;20083;-80
2022/08/29 10:35:59;;;;;;;14.90;3.78;;;21.00;99.90;;;;;;4963691;28;20411;-84
2022/08/29 10:38:37;;;;;;;15.45;3.42;;;20.90;99.90;;;;;;4976724;28;20050;-80
2022/08/29 10:41:37;;;;;;;13.25;3.03;;;20.70;99.90;;;;;;4977761;28;20051;-79
2022/08/29 10:44:29;;;;;;;11.10;3.05;;;20.60;99.90;;;;;;4952778;28;20054;-79
2022/08/29 10:47:02;;;;;;;12.43;3.47;;;20.50;99.90;;;;;;4968294;28;20058;-80
2022/08/29 10:49:37;;;;;;;15.60;3.85;;;20.60;99.90;;;;;;4965003;28;20469;-78
2022/08/29 10:52:19;;;;;;;15.15;3.60;;;20.50;99.90;;;;;;4967236;28;20114;-77
2022/08/29 10:55:03;;;;;;;12.55;3.17;;;20.40;99.90;;;;;;4982805;28;20146;-78
2022/08/29 10:58:06;;;;;;;16.10;3.30;;;20.40;99.90;;;;;;4945971;28;20070;-80
2022/08/29 11:00:56;;;;;;;18.70;3.95;;;20.40;99.90;;;;;;4971331;28;20144;-79
2022/08/29 11:03:34;;;;;;;17.05;3.47;;;20.20;99.90;;;;;;5009530;27;20061;-77
2022/08/29 11:06:11;;;;;;;15.68;3.33;;;20.10;99.90;;;;;;4975491;28;20046;-78
2022/08/29 11:08:45;;;;;;;18.65;3.97;;;20.10;99.90;;;;;;4971581;28;20058;-76
2022/08/29 11:11:16;;;;;;;13.90;3.80;;;20.10;99.90;;;;;;4967217;28;20061;-78
2022/08/29 11:13:49;;;;;;;11.43;3.22;;;20.10;99.90;;;;;;4983951;28;20057;-78
2022/08/29 11:20:20;;;;;;;14.18;3.45;;;20.00;99.90;;;;;;4983073;28;20189;-76
2022/08/29 11:23:21;;;;;;;11.95;3.50;;;20.00;99.90;;;;;;4958851;28;20050;-76
2022/08/29 11:25:47;;;;;;;15.45;3.92;;;20.10;99.90;;;;;;4986376;28;20361;-78
2022/08/29 11:28:39;;;;;;;17.27;3.45;;;20.20;99.90;;;;;;4972864;28;20496;-81
2022/08/29 11:31:20;;;;;;;10.40;3.13;;;20.30;99.90;;;;;;4960634;28;20489;-77
2022/08/29 11:33:51;;;;;;;14.05;3.08;;;20.40;99.90;;;;;;4963728;28;20507;-78
2022/08/29 11:36:39;;;;;;;17.00;3.30;;;20.60;99.90;;;;;;4971571;28;20047;-80
2022/08/29 11:39:28;;;;;;;12.77;3.20;;;20.70;99.90;;;;;;4974555;28;20038;-79
2022/08/29 11:41:57;;;;;;;15.40;3.05;;;20.70;99.90;;;;;;4979135;28;20050;-78
2022/08/29 11:44:26;;;;;;;15.85;3.10;;;20.80;99.90;;;;;;4971921;28;20112;-79
2022/08/29 11:47:32;;;;;;;13.32;3.10;;;20.80;99.90;;;;;;4972156;28;20061;-79
2022/08/29 11:50:13;;;;;;;11.00;2.83;;;20.80;99.90;;;;;;4957449;28;20041;-79
2022/08/29 11:53:00;;;;;;;11.45;3.05;;;20.90;99.90;;;;;;4988734;28;20054;-80
2022/08/29 11:55:41;;;;;;;9.35;2.75;;;21.10;99.90;;;;;;4990675;28;20482;-79
2022/08/29 11:58:15;;;;;;;10.27;2.65;;;21.20;99.90;;;;;;5022677;28;20048;-79
2022/08/29 12:00:46;;;;;;;11.88;2.58;;;21.20;99.90;;;;;;4979181;28;20041;-79
2022/08/29 12:03:33;;;;;;;11.80;3.03;;;21.20;99.90;;;;;;4968804;28;20038;-77
2022/08/29 12:06:25;;;;;;;13.07;2.72;;;21.20;99.90;;;;;;4995399;28;20049;-79
2022/08/29 12:08:56;;;;;;;12.07;3.63;;;21.40;99.90;;;;;;5005765;28;20190;-78
2022/08/29 12:11:57;;;;;;;7.97;2.67;;;21.60;99.90;;;;;;5013586;28;20042;-79
2022/08/29 12:14:39;;;;;;;7.80;2.42;;;21.80;99.90;;;;;;4992190;28;20046;-77
2022/08/29 12:17:28;;;;;;;9.35;2.63;;;21.80;99.90;;;;;;4989069;28;20521;-77
2022/08/29 12:20:05;;;;;;;11.15;2.65;;;22.00;99.90;;;;;;5003706;28;20062;-80
2022/08/29 12:22:50;;;;;;;9.98;2.35;;;22.10;99.90;;;;;;4966231;28;20491;-79
2022/08/29 12:25:30;;;;;;;11.35;2.45;;;22.20;99.90;;;;;;4961531;28;20046;-77
2022/08/29 12:28:01;;;;;;;10.20;2.83;;;22.10;99.90;;;;;;4973343;28;20126;-78
2022/08/29 12:30:45;;;;;;;8.30;2.90;;;22.20;99.90;;;;;;4954913;28;20081;-78
2022/08/29 12:33:31;;;;;;;8.48;2.42;;;22.20;99.90;;;;;;4964452;28;20057;-77
2022/08/29 12:35:59;;;;;;;9.88;2.80;;;22.20;99.90;;;;;;4976277;28;20109;-77
2022/08/29 12:38:37;;;;;;;11.55;2.67;;;22.20;99.90;;;;;;4958999;28;20453;-79
2022/08/29 12:41:58;;;;;;;8.85;2.30;;;22.20;99.90;;;;;;4962485;28;20085;-79
2022/08/29 12:44:39;;;;;;;9.13;2.95;;;22.30;99.90;;;;;;4867676;29;20066;-81
2022/08/29 12:47:11;;;;;;;12.85;2.35;;;22.40;99.90;;;;;;4896902;29;20069;-79
2022/08/29 12:49:50;;;;;;;7.72;2.70;;;22.40;99.90;;;;;;4878438;29;20062;-80
2022/08/29 12:52:23;;;;;;;10.68;2.30;;;22.70;99.90;;;;;;4929240;29;20105;-77
2022/08/29 12:54:49;;;;;;;7.80;2.20;;;23.20;99.90;;;;;;4875425;28;20081;-77
2022/08/29 12:57:22;;;;;;;7.70;2.50;;;23.50;99.90;;;;;;4852575;29;20073;-80
2022/08/29 12:59:51;;;;;;;7.68;2.38;;;23.60;99.90;;;;;;4857827;29;20058;-76
2022/08/29 13:02:30;;;;;;;9.32;2.58;;;23.60;99.90;;;;;;4852980;29;20651;-79
2022/08/29 13:04:56;;;;;;;10.57;2.17;;;23.60;99.90;;;;;;4830493;29;20046;-76
2022/08/29 13:07:23;;;;;;;12.55;2.28;;;23.40;99.90;;;;;;4859360;29;20126;-76
2022/08/29 13:09:53;;;;;;;9.50;2.08;;;23.30;99.90;;;;;;4938173;29;20055;-78
2022/08/29 13:12:39;;;;;;;9.75;2.20;;;23.10;99.90;;;;;;4886181;29;20058;-79
2022/08/29 13:15:15;;;;;;;8.90;2.00;;;23.10;99.90;;;;;;4847867;29;20050;-78